createdAt,value
2023-03-21T00:00:42.832Z,9.47
2023-03-21T00:03:09.535Z,9.48
2023-03-21T00:05:45.781Z,9.46
2023-03-21T00:08:12.498Z,9.49
2023-03-21T00:10:41.313Z,9.48
2023-03-21T00:13:13.473Z,9.46
2023-03-21T00:16:04.035Z,9.41
2023-03-21T00:18:41.909Z,9.44
2023-03-21T00:24:01.360Z,9.44
2023-03-21T00:26:28.309Z,9.47
2023-03-21T00:28:54.966Z,9.45
2023-03-21T00:31:21.605Z,9.44
2023-03-21T00:33:48.577Z,9.44
2023-03-21T00:36:16.140Z,9.46
2023-03-21T00:38:43.428Z,9.41
2023-03-21T00:41:23.378Z,9.45
2023-03-21T00:43:58.480Z,9.42
2023-03-21T00:46:30.031Z,9.44
2023-03-21T00:48:59.561Z,9.43
2023-03-21T00:51:27.086Z,9.43
2023-03-21T00:53:55.852Z,9.46
2023-03-21T00:56:23.228Z,9.47
2023-03-21T00:58:50.165Z,9.49
2023-03-21T01:01:17.571Z,9.46
2023-03-21T01:03:50.801Z,9.44
2023-03-21T01:06:19.650Z,9.42
2023-03-21T01:08:52.781Z,9.41
2023-03-21T01:11:25.788Z,9.39
2023-03-21T01:13:59.605Z,9.37
2023-03-21T01:16:31.942Z,9.32
2023-03-21T01:18:59.660Z,9.31
2023-03-21T01:21:26.532Z,9.30
2023-03-21T01:23:53.752Z,9.30
2023-03-21T01:26:20.999Z,9.29
2023-03-21T01:28:47.596Z,9.27
2023-03-21T01:31:16.985Z,9.26
2023-03-21T01:33:44.584Z,9.24
2023-03-21T01:36:19.308Z,9.16
2023-03-21T01:38:48.548Z,9.25
2023-03-21T01:41:41.907Z,9.27
2023-03-21T01:44:18.260Z,9.25
2023-03-21T01:49:41.025Z,9.23
2023-03-21T01:52:26.396Z,9.23
2023-03-21T01:54:58.693Z,9.19
2023-03-21T01:57:42.417Z,9.16
2023-03-21T02:00:15.474Z,9.18
2023-03-21T02:03:06.123Z,9.14
2023-03-21T02:06:01.390Z,9.14
2023-03-21T02:08:39.134Z,9.16
2023-03-21T02:11:07.834Z,9.14
2023-03-21T02:13:35.681Z,9.11
2023-03-21T02:16:15.426Z,9.09
2023-03-21T02:19:02.371Z,9.08
2023-03-21T02:21:47.198Z,9.05
2023-03-21T02:24:41.105Z,9.05
2023-03-21T02:27:24.465Z,9.02
2023-03-21T02:30:00.485Z,9.04
2023-03-21T02:32:39.126Z,9.03
2023-03-21T02:35:09.049Z,9.03
2023-03-21T02:37:44.619Z,9.00
2023-03-21T02:40:27.994Z,9.01
2023-03-21T02:43:22.156Z,9.01
2023-03-21T02:46:09.422Z,8.99
2023-03-21T02:48:50.300Z,8.89
2023-03-21T02:51:22.599Z,8.90
2023-03-21T02:54:24.932Z,8.93
2023-03-21T02:56:50.137Z,8.91
2023-03-21T02:59:19.972Z,8.93
2023-03-21T03:01:46.664Z,8.91
2023-03-21T03:04:21.367Z,8.92
2023-03-21T03:07:08.753Z,8.91
2023-03-21T03:09:53.991Z,8.93
2023-03-21T03:12:45.840Z,8.90
2023-03-21T03:15:51.924Z,8.84
2023-03-21T03:18:22.755Z,8.83
2023-03-21T03:21:00.817Z,8.79
2023-03-21T03:23:40.790Z,8.79
2023-03-21T03:26:35.422Z,8.80
2023-03-21T03:29:07.537Z,8.78
2023-03-21T03:31:39.700Z,8.79
2023-03-21T03:34:11.481Z,8.78
2023-03-21T03:36:47.679Z,8.77
2023-03-21T03:39:17.478Z,8.77
2023-03-21T03:42:25.326Z,8.74
2023-03-21T03:44:42.342Z,8.73
2023-03-21T03:47:20.117Z,8.71
2023-03-21T03:50:02.317Z,8.65
2023-03-21T03:52:35.780Z,8.68
2023-03-21T03:55:03.286Z,8.67
2023-03-21T03:57:30.222Z,8.65
2023-03-21T03:59:57.008Z,8.68
2023-03-21T04:02:23.723Z,8.69
2023-03-21T04:04:53.082Z,8.68
2023-03-21T04:07:21.575Z,8.64
2023-03-21T04:09:48.502Z,8.66
2023-03-21T04:12:15.422Z,8.65
2023-03-21T04:14:47.249Z,8.64
2023-03-21T04:17:15.774Z,8.65
2023-03-21T04:19:42.801Z,8.59
2023-03-21T04:22:09.588Z,8.62
2023-03-21T04:24:37.570Z,8.60
2023-03-21T04:27:05.960Z,8.57
2023-03-21T04:29:33.264Z,8.56
2023-03-21T04:32:00.220Z,8.55
2023-03-21T04:34:28.332Z,8.55
2023-03-21T04:36:55.734Z,8.52
2023-03-21T04:39:24.536Z,8.53
2023-03-21T04:41:51.650Z,8.50
2023-03-21T04:44:19.309Z,8.51
2023-03-21T04:46:46.226Z,8.53
2023-03-21T04:49:13.454Z,8.49
2023-03-21T04:51:41.117Z,8.51
2023-03-21T04:56:35.660Z,8.53
2023-03-21T04:59:08.289Z,8.52
2023-03-21T05:01:35.036Z,8.53
2023-03-21T05:04:03.424Z,8.50
2023-03-21T05:06:30.858Z,8.55
2023-03-21T05:09:01.773Z,8.56
2023-03-21T05:11:30.959Z,8.56
2023-03-21T05:13:58.890Z,8.56
2023-03-21T05:16:30.527Z,8.52
2023-03-21T05:19:04.293Z,8.59
2023-03-21T05:21:42.052Z,8.60
2023-03-21T05:24:12.273Z,8.62
2023-03-21T05:26:40.094Z,8.65
2023-03-21T05:29:07.938Z,8.68
2023-03-21T05:31:34.619Z,8.66
2023-03-21T05:34:01.519Z,8.72
2023-03-21T05:36:28.334Z,8.74
2023-03-21T05:38:55.226Z,8.75
2023-03-21T05:41:21.969Z,8.79
2023-03-21T05:43:48.616Z,8.83
2023-03-21T05:46:15.524Z,8.85
2023-03-21T05:48:48.068Z,8.90
2023-03-21T05:51:15.117Z,8.91
2023-03-21T05:53:42.089Z,8.99
2023-03-21T05:56:09.352Z,9.04
2023-03-21T05:58:35.974Z,9.06
2023-03-21T06:01:02.805Z,9.13
2023-03-21T06:03:29.519Z,9.16
2023-03-21T06:05:56.114Z,9.14
2023-03-21T06:08:23.197Z,9.12
2023-03-21T06:10:50.093Z,9.12
2023-03-21T06:13:16.796Z,9.19
2023-03-21T06:15:43.762Z,9.21
2023-03-21T06:18:10.929Z,9.24
2023-03-21T06:20:37.521Z,9.28
2023-03-21T06:23:04.394Z,9.33
2023-03-21T06:25:31.034Z,9.39
2023-03-21T06:27:57.684Z,9.46
2023-03-21T06:30:24.617Z,9.52
2023-03-21T06:32:51.439Z,9.56
2023-03-21T06:35:18.191Z,9.62
2023-03-21T06:37:46.410Z,9.69
2023-03-21T06:40:13.841Z,9.75
2023-03-21T06:42:40.612Z,9.75
2023-03-21T06:45:08.067Z,9.87
2023-03-21T06:47:35.023Z,9.95
2023-03-21T06:50:01.826Z,10.00
2023-03-21T06:52:28.749Z,10.05
2023-03-21T06:54:55.503Z,10.13
2023-03-21T06:57:22.138Z,10.12
2023-03-21T06:59:49.037Z,10.24
2023-03-21T07:02:16.045Z,10.31
2023-03-21T07:04:43.030Z,10.35
2023-03-21T07:07:09.823Z,10.42
2023-03-21T07:09:36.843Z,10.43
2023-03-21T07:12:03.608Z,10.48
2023-03-21T07:14:32.327Z,10.53
2023-03-21T07:17:00.894Z,10.54
2023-03-21T07:19:27.718Z,10.56
2023-03-21T07:21:54.834Z,10.59
2023-03-21T07:24:21.604Z,10.59
2023-03-21T07:26:48.216Z,10.58
2023-03-21T07:29:15.527Z,10.63
2023-03-21T07:31:42.688Z,10.69
2023-03-21T07:34:09.293Z,10.71
2023-03-21T07:36:37.246Z,10.75
2023-03-21T07:39:04.649Z,10.79
2023-03-21T07:41:31.350Z,10.77
2023-03-21T07:43:58.210Z,10.89
2023-03-21T07:46:25.427Z,10.94
2023-03-21T07:48:52.129Z,10.97
2023-03-21T07:51:19.005Z,11.02
2023-03-21T07:53:48.685Z,11.08
2023-03-21T07:56:16.020Z,11.17
2023-03-21T07:58:43.117Z,11.25
2023-03-21T08:01:09.818Z,11.34
2023-03-21T08:03:36.534Z,11.40
2023-03-21T08:06:03.910Z,11.41
2023-03-21T08:08:30.882Z,11.42
2023-03-21T08:10:57.578Z,11.49
2023-03-21T08:13:26.197Z,11.53
2023-03-21T08:15:53.542Z,11.59
2023-03-21T08:18:20.583Z,11.64
2023-03-21T08:20:53.503Z,11.70
2023-03-21T08:23:21.046Z,11.72
2023-03-21T08:25:52.031Z,11.74
2023-03-21T08:28:19.298Z,11.73
2023-03-21T08:30:46.498Z,11.76
2023-03-21T08:33:16.181Z,11.82
2023-03-21T08:35:43.331Z,11.85
2023-03-21T08:38:10.556Z,11.86
2023-03-21T08:40:37.342Z,11.95
2023-03-21T08:43:04.619Z,12.00
2023-03-21T08:45:31.729Z,12.04
2023-03-21T08:47:58.583Z,12.05
2023-03-21T08:50:29.726Z,12.14
2023-03-21T08:52:56.543Z,12.17
2023-03-21T08:55:23.238Z,12.23
2023-03-21T08:57:50.116Z,12.27
2023-03-21T09:00:18.195Z,12.31
2023-03-21T09:02:47.001Z,12.31
2023-03-21T09:05:14.563Z,12.24
2023-03-21T09:07:41.721Z,12.31
2023-03-21T09:10:26.953Z,12.34
2023-03-21T09:12:55.598Z,12.39
2023-03-21T09:15:25.043Z,12.44
2023-03-21T09:17:58.598Z,12.46
2023-03-21T09:20:31.079Z,12.50
2023-03-21T09:22:59.430Z,12.52
2023-03-21T09:25:29.626Z,12.55
2023-03-21T09:27:56.565Z,12.60
2023-03-21T09:30:26.110Z,12.58
2023-03-21T09:32:55.843Z,12.63
2023-03-21T09:35:24.767Z,12.64
2023-03-21T09:37:51.639Z,12.65
2023-03-21T09:40:32.084Z,12.67
2023-03-21T09:43:35.586Z,12.72
2023-03-21T09:46:15.562Z,12.78
2023-03-21T09:48:57.294Z,12.81
2023-03-21T09:51:29.199Z,12.87
2023-03-21T09:54:00.866Z,12.90
2023-03-21T09:56:28.136Z,12.95
2023-03-21T09:58:59.764Z,13.01
2023-03-21T10:01:34.326Z,13.13
2023-03-21T10:04:04.940Z,13.23
2023-03-21T10:06:32.265Z,13.33
2023-03-21T10:09:30.330Z,13.39
2023-03-21T10:12:21.922Z,13.43
2023-03-21T10:14:52.588Z,13.44
2023-03-21T10:17:33.790Z,13.47
2023-03-21T10:20:12.043Z,13.52
2023-03-21T10:22:39.707Z,13.57
2023-03-21T10:25:07.785Z,13.66
2023-03-21T10:27:37.389Z,13.75
2023-03-21T10:30:07.652Z,13.82
2023-03-21T10:32:35.931Z,13.86
2023-03-21T10:35:05.263Z,13.91
2023-03-21T10:37:32.727Z,13.97
2023-03-21T10:39:59.614Z,13.88
2023-03-21T10:42:33.263Z,13.87
2023-03-21T10:45:00.261Z,13.88
2023-03-21T10:47:34.957Z,13.95
2023-03-21T10:50:13.423Z,13.99
2023-03-21T10:52:51.845Z,14.05
2023-03-21T10:55:25.228Z,14.15
2023-03-21T10:58:11.205Z,14.21
2023-03-21T11:00:41.564Z,14.22
2023-03-21T11:03:31.619Z,14.29
2023-03-21T11:06:12.482Z,14.33
2023-03-21T11:08:44.162Z,14.37
2023-03-21T11:11:20.231Z,14.45
2023-03-21T11:13:57.143Z,14.51
2023-03-21T11:16:30.212Z,14.55
2023-03-21T11:19:02.118Z,14.57
2023-03-21T11:21:36.476Z,14.58
2023-03-21T11:24:04.301Z,14.58
2023-03-21T11:26:37.660Z,14.59
2023-03-21T11:29:23.316Z,14.57
2023-03-21T11:31:50.150Z,14.60
2023-03-21T11:34:33.986Z,14.68
2023-03-21T11:37:02.745Z,14.79
2023-03-21T11:39:34.026Z,14.93
2023-03-21T11:42:01.086Z,15.08
2023-03-21T11:44:41.322Z,15.28
2023-03-21T11:47:10.941Z,15.40
2023-03-21T11:49:38.079Z,15.40
2023-03-21T11:52:19.278Z,15.42
2023-03-21T11:55:23.737Z,15.39
2023-03-21T11:58:14.988Z,15.30
2023-03-21T12:01:13.185Z,15.23
2023-03-21T12:04:01.581Z,15.22
2023-03-21T12:06:44.293Z,15.29
2023-03-21T12:09:28.206Z,15.30
2023-03-21T12:12:03.693Z,15.32
2023-03-21T12:14:44.902Z,15.36
2023-03-21T12:17:31.370Z,15.54
2023-03-21T12:20:12.170Z,15.74
2023-03-21T12:23:02.986Z,15.88
2023-03-21T12:25:45.605Z,15.91
2023-03-21T12:28:33.243Z,15.90
2023-03-21T12:31:12.456Z,15.92
2023-03-21T12:33:54.136Z,15.87
2023-03-21T12:36:33.914Z,15.78
2023-03-21T12:39:30.066Z,15.67
2023-03-21T12:42:19.514Z,15.57
2023-03-21T12:44:54.304Z,15.60
2023-03-21T12:47:26.708Z,15.56
2023-03-21T12:50:25.259Z,15.52
2023-03-21T12:53:00.311Z,15.48
2023-03-21T12:55:32.398Z,15.47
2023-03-21T12:58:11.717Z,15.44
2023-03-21T13:00:43.698Z,15.41
2023-03-21T13:03:22.883Z,15.46
2023-03-21T13:05:58.365Z,15.49
2023-03-21T13:08:44.672Z,15.45
2023-03-21T13:11:15.857Z,15.44
2023-03-21T13:13:49.425Z,15.53
2023-03-21T13:16:21.061Z,15.64
2023-03-21T13:19:02.918Z,15.72
2023-03-21T13:22:11.658Z,15.85
2023-03-21T13:24:43.997Z,15.85
2023-03-21T13:27:30.033Z,15.93
2023-03-21T13:30:07.789Z,16.00
2023-03-21T13:32:45.761Z,16.01
2023-03-21T13:35:18.485Z,16.03
2023-03-21T13:37:56.572Z,15.96
2023-03-21T13:40:29.102Z,15.91
2023-03-21T13:43:00.577Z,15.96
2023-03-21T13:45:33.526Z,16.06
2023-03-21T13:48:27.581Z,16.06
2023-03-21T13:51:04.948Z,16.03
2023-03-21T13:53:36.682Z,16.00
2023-03-21T13:56:21.450Z,15.97
2023-03-21T13:58:48.179Z,15.92
2023-03-21T14:01:35.977Z,15.85
2023-03-21T14:04:14.748Z,15.73
2023-03-21T14:06:55.028Z,15.62
2023-03-21T14:09:33.769Z,15.58
2023-03-21T14:12:07.696Z,15.51
2023-03-21T14:14:40.539Z,15.51
2023-03-21T14:17:34.898Z,15.51
2023-03-21T14:20:14.541Z,15.53
2023-03-21T14:22:41.390Z,15.55
2023-03-21T14:25:15.787Z,15.56
2023-03-21T14:27:50.526Z,15.58
2023-03-21T14:30:38.457Z,15.56
2023-03-21T14:33:12.708Z,15.54
2023-03-21T14:35:41.758Z,15.55
2023-03-21T14:38:19.127Z,15.54
2023-03-21T14:40:52.460Z,15.50
2023-03-21T14:43:21.053Z,15.45
2023-03-21T14:45:50.383Z,15.39
2023-03-21T14:48:17.807Z,15.34
2023-03-21T14:50:52.923Z,15.33
2023-03-21T14:53:27.150Z,15.27
2023-03-21T14:55:56.953Z,15.26
2023-03-21T14:58:24.223Z,15.21
2023-03-21T15:00:51.461Z,15.18
2023-03-21T15:03:20.741Z,15.12
2023-03-21T15:05:47.934Z,15.12
2023-03-21T15:08:19.770Z,15.09
2023-03-21T15:11:07.243Z,15.07
2023-03-21T15:13:45.542Z,15.04
2023-03-21T15:16:15.001Z,14.97
2023-03-21T15:18:43.087Z,14.92
2023-03-21T15:21:16.732Z,14.86
2023-03-21T15:23:46.623Z,14.82
2023-03-21T15:26:17.040Z,14.79
2023-03-21T15:28:47.192Z,14.77
2023-03-21T15:31:20.519Z,14.71
2023-03-21T15:33:53.502Z,14.69
2023-03-21T15:36:42.719Z,14.68
2023-03-21T15:39:14.223Z,14.50
2023-03-21T15:41:43.056Z,14.12
2023-03-21T15:44:09.693Z,13.93
2023-03-21T15:46:44.769Z,13.76
2023-03-21T15:49:17.280Z,13.62
2023-03-21T15:51:55.936Z,13.51
2023-03-21T15:54:29.269Z,13.40
2023-03-21T15:56:58.012Z,13.34
2023-03-21T15:59:27.777Z,13.22
2023-03-21T16:01:54.592Z,13.18
2023-03-21T16:04:23.848Z,13.13
2023-03-21T16:07:15.437Z,13.05
2023-03-21T16:09:46.148Z,13.05
2023-03-21T16:12:15.696Z,13.02
2023-03-21T16:14:43.190Z,13.03
2023-03-21T16:17:33.708Z,12.99
2023-03-21T16:20:00.798Z,12.91
2023-03-21T16:22:28.869Z,12.85
2023-03-21T16:24:56.499Z,12.84
2023-03-21T16:27:23.087Z,12.79
2023-03-21T16:29:49.716Z,12.75
2023-03-21T16:32:18.473Z,12.72
2023-03-21T16:34:46.300Z,12.73
2023-03-21T16:37:15.842Z,12.73
2023-03-21T16:39:43.221Z,12.69
2023-03-21T16:42:13.439Z,12.63
2023-03-21T16:44:40.548Z,12.55
2023-03-21T16:47:22.694Z,12.42
2023-03-21T16:49:49.939Z,12.35
2023-03-21T16:52:16.780Z,12.27
2023-03-21T16:54:43.599Z,12.15
2023-03-21T16:57:30.802Z,12.05
2023-03-21T16:59:57.755Z,11.91
2023-03-21T17:02:26.154Z,11.79
2023-03-21T17:04:53.075Z,11.61
2023-03-21T17:07:20.655Z,11.54
2023-03-21T17:09:48.141Z,11.48
2023-03-21T17:12:16.503Z,11.48
2023-03-21T17:14:44.320Z,11.45
2023-03-21T17:17:12.922Z,11.45
2023-03-21T17:19:40.233Z,11.37
2023-03-21T17:22:07.209Z,11.40
2023-03-21T17:24:34.803Z,11.27
2023-03-21T17:27:03.318Z,11.23
2023-03-21T17:29:30.604Z,11.15
2023-03-21T17:31:57.274Z,11.06
2023-03-21T17:34:24.191Z,10.94
2023-03-21T17:36:51.014Z,10.88
2023-03-21T17:39:24.232Z,10.82
2023-03-21T17:41:52.162Z,10.76
2023-03-21T17:44:19.899Z,10.68
2023-03-21T17:46:49.543Z,10.67
2023-03-21T17:49:17.328Z,10.62
2023-03-21T17:54:29.831Z,10.53
2023-03-21T17:56:56.673Z,10.55
2023-03-21T17:59:23.377Z,10.49
2023-03-21T18:01:50.742Z,10.19
2023-03-21T18:04:17.372Z,10.51
2023-03-21T18:06:44.914Z,10.37
2023-03-21T18:09:12.627Z,10.34
2023-03-21T18:11:40.335Z,10.30
2023-03-21T18:14:16.243Z,10.48
2023-03-21T18:16:45.806Z,10.33
2023-03-21T18:19:14.922Z,10.37
2023-03-21T18:21:45.252Z,10.37
2023-03-21T18:24:13.627Z,10.13
2023-03-21T18:26:41.099Z,10.44
2023-03-21T18:32:06.660Z,10.37
2023-03-21T18:34:37.124Z,10.43
2023-03-21T18:37:07.570Z,10.11
2023-03-21T18:39:40.388Z,10.18
2023-03-21T18:42:07.828Z,10.31
2023-03-21T18:44:45.670Z,10.22
2023-03-21T18:47:12.947Z,10.01
2023-03-21T18:52:27.600Z,10.34
2023-03-21T18:54:55.987Z,10.02
2023-03-21T18:57:45.764Z,10.31
2023-03-21T19:00:30.292Z,10.30
2023-03-21T19:14:28.093Z,10.29
2023-03-21T19:17:45.499Z,10.26
2023-03-21T19:19:43.453Z,10.21
2023-03-21T19:22:11.398Z,10.19
2023-03-21T19:24:39.803Z,10.14
2023-03-21T19:27:07.844Z,10.00
2023-03-21T19:29:34.525Z,10.04
2023-03-21T19:32:01.496Z,10.05
2023-03-21T19:34:29.462Z,10.03
2023-03-21T19:36:57.522Z,10.00
2023-03-21T19:39:25.155Z,9.97
2023-03-21T19:41:55.351Z,9.92
2023-03-21T19:44:28.313Z,9.85
2023-03-21T19:46:55.126Z,9.84
2023-03-21T19:49:34.556Z,9.81
2023-03-21T19:52:09.670Z,9.73
2023-03-21T19:54:39.502Z,9.71
2023-03-21T19:57:07.348Z,9.70
2023-03-21T19:59:34.278Z,9.64
2023-03-21T20:02:17.858Z,9.61
2023-03-21T20:04:48.347Z,9.59
2023-03-21T20:07:15.719Z,9.58
2023-03-21T20:09:52.349Z,9.53
2023-03-21T20:12:20.174Z,9.45
2023-03-21T20:14:49.060Z,9.40
2023-03-21T20:17:16.630Z,9.32
2023-03-21T20:19:43.466Z,9.29
2023-03-21T20:22:21.748Z,9.20
2023-03-21T20:24:53.945Z,9.11
2023-03-21T20:27:25.107Z,9.00
2023-03-21T20:30:10.145Z,8.94
2023-03-21T20:32:41.861Z,8.86
2023-03-21T20:35:20.804Z,8.79
2023-03-21T20:37:54.302Z,8.67
2023-03-21T20:40:21.505Z,8.52
2023-03-21T20:42:48.868Z,8.47
2023-03-21T20:45:17.312Z,8.38
2023-03-21T20:47:44.133Z,8.32
2023-03-21T20:50:14.054Z,8.25
2023-03-21T20:53:07.003Z,8.23
2023-03-21T20:55:31.560Z,8.19
2023-03-21T20:58:02.091Z,8.14
2023-03-21T21:00:30.011Z,8.10
2023-03-21T21:02:57.810Z,8.09
2023-03-21T21:05:33.003Z,8.02
2023-03-21T21:08:01.431Z,7.96
2023-03-21T21:10:28.820Z,7.90
2023-03-21T21:12:55.627Z,7.87
2023-03-21T21:15:22.229Z,7.80
2023-03-21T21:18:07.125Z,7.73
2023-03-21T21:20:36.120Z,7.73
2023-03-21T21:23:03.120Z,7.67
2023-03-21T21:25:33.141Z,7.71
2023-03-21T21:28:01.845Z,7.69
2023-03-21T21:30:29.679Z,7.73
2023-03-21T21:32:59.545Z,7.68
2023-03-21T21:35:26.504Z,7.70
2023-03-21T21:37:53.948Z,7.68
2023-03-21T21:40:23.411Z,7.66
2023-03-21T21:42:50.224Z,7.66
2023-03-21T21:45:18.627Z,7.58
2023-03-21T21:47:46.518Z,7.61
2023-03-21T21:50:14.386Z,7.61
2023-03-21T21:52:43.992Z,7.56
2023-03-21T21:55:10.925Z,7.50
2023-03-21T21:57:39.753Z,7.47
2023-03-21T22:00:12.963Z,7.41
2023-03-21T22:02:41.754Z,7.42
2023-03-21T22:05:09.216Z,7.38
2023-03-21T22:07:37.621Z,7.37
2023-03-21T22:10:04.970Z,7.27
2023-03-21T22:12:32.360Z,7.18
2023-03-21T22:14:59.214Z,7.10
2023-03-21T22:17:25.820Z,6.99
2023-03-21T22:20:04.647Z,6.88
2023-03-21T22:22:34.256Z,6.84
2023-03-21T22:25:01.489Z,6.80
2023-03-21T22:27:28.117Z,6.76
2023-03-21T22:29:54.874Z,6.69
2023-03-21T22:32:21.917Z,6.62
2023-03-21T22:34:48.852Z,6.56
2023-03-21T22:37:15.748Z,6.52
2023-03-21T22:39:42.756Z,6.46
2023-03-21T22:42:09.323Z,6.39
2023-03-21T22:44:36.250Z,6.31
2023-03-21T22:47:05.278Z,6.25
2023-03-21T22:49:32.385Z,6.20
2023-03-21T22:52:00.132Z,6.14
2023-03-21T22:54:27.512Z,6.13
2023-03-21T22:56:54.165Z,6.01
2023-03-21T22:59:21.338Z,5.99
2023-03-21T23:01:48.504Z,5.96
2023-03-21T23:04:15.681Z,5.87
2023-03-21T23:06:42.562Z,5.87
2023-03-21T23:09:09.934Z,5.81
2023-03-21T23:11:40.361Z,5.73
2023-03-21T23:14:08.897Z,5.68
2023-03-21T23:16:38.351Z,5.65
2023-03-21T23:19:06.166Z,5.58
2023-03-21T23:21:34.670Z,5.52
2023-03-21T23:24:01.618Z,5.49
2023-03-21T23:26:28.633Z,5.45
2023-03-21T23:28:55.490Z,5.38
2023-03-21T23:31:24.492Z,5.32
2023-03-21T23:33:51.244Z,5.29
2023-03-21T23:36:19.726Z,5.23
2023-03-21T23:38:46.421Z,5.19
2023-03-21T23:41:19.003Z,5.18
2023-03-21T23:43:47.203Z,5.12
2023-03-21T23:46:15.568Z,5.11
2023-03-21T23:48:43.257Z,5.05
2023-03-21T23:51:12.049Z,5.01
2023-03-21T23:53:39.365Z,4.95
2023-03-21T23:56:13.865Z,4.89
2023-03-21T23:58:40.703Z,4.84
